createdAt,value
2018-10-12T00:00:11.106Z,14.34
2018-10-12T00:01:11.578Z,14.45
2018-10-12T00:02:12.047Z,14.54
2018-10-12T00:03:12.518Z,14.65
2018-10-12T00:04:12.987Z,14.74
2018-10-12T00:05:13.460Z,14.84
2018-10-12T00:06:13.926Z,14.94
2018-10-12T00:07:14.396Z,15.02
2018-10-12T00:08:14.867Z,15.11
2018-10-12T00:09:15.337Z,15.20
2018-10-12T00:10:15.809Z,15.29
2018-10-12T00:11:16.279Z,15.37
2018-10-12T00:12:16.752Z,15.46
2018-10-12T00:13:17.220Z,15.54
2018-10-12T00:14:17.691Z,15.62
2018-10-12T00:15:18.163Z,15.70
2018-10-12T00:16:18.636Z,15.75
2018-10-12T00:17:19.106Z,15.82
2018-10-12T00:18:19.579Z,15.91
2018-10-12T00:19:20.051Z,15.99
2018-10-12T00:20:20.523Z,16.07
2018-10-12T00:21:20.998Z,16.14
2018-10-12T00:22:21.468Z,16.23
2018-10-12T00:23:21.941Z,16.31
2018-10-12T00:24:22.413Z,16.37
2018-10-12T00:25:22.888Z,16.47
2018-10-12T00:26:23.389Z,16.52
2018-10-12T00:27:23.831Z,16.57
2018-10-12T00:28:24.304Z,16.59
2018-10-12T00:29:24.778Z,16.56
2018-10-12T00:30:25.254Z,16.54
2018-10-12T00:31:25.726Z,16.54
2018-10-12T00:32:26.197Z,16.51
2018-10-12T00:33:26.672Z,16.44
2018-10-12T00:34:27.146Z,16.36
2018-10-12T00:35:27.622Z,16.27
2018-10-12T00:36:28.092Z,16.17
2018-10-12T00:37:28.565Z,16.06
2018-10-12T00:38:29.039Z,15.94
2018-10-12T00:39:29.511Z,15.81
2018-10-12T00:40:29.983Z,15.67
2018-10-12T00:41:30.457Z,15.53
2018-10-12T00:42:30.929Z,15.39
2018-10-12T00:43:31.454Z,15.26
2018-10-12T00:44:31.876Z,15.12
2018-10-12T00:45:32.349Z,14.99
2018-10-12T00:46:32.821Z,14.85
2018-10-12T00:47:33.291Z,14.72
2018-10-12T00:48:33.814Z,14.58
2018-10-12T00:49:34.258Z,14.45
2018-10-12T00:50:34.708Z,14.33
2018-10-12T00:51:35.178Z,14.21
2018-10-12T00:52:35.649Z,14.11
2018-10-12T00:53:36.119Z,13.98
2018-10-12T00:54:36.597Z,13.88
2018-10-12T00:55:37.262Z,13.79
2018-10-12T00:56:37.531Z,13.70
2018-10-12T00:57:38.002Z,13.64
2018-10-12T00:58:38.529Z,13.60
2018-10-12T00:59:38.941Z,13.58
2018-10-12T01:00:39.498Z,13.58
2018-10-12T01:01:39.918Z,13.61
2018-10-12T01:02:40.351Z,13.64
2018-10-12T01:03:40.821Z,13.68
2018-10-12T01:04:41.291Z,13.75
2018-10-12T01:05:41.760Z,13.83
2018-10-12T01:06:42.362Z,13.92
2018-10-12T01:07:42.700Z,14.02
2018-10-12T01:08:43.219Z,14.13
2018-10-12T01:09:43.637Z,14.22
2018-10-12T01:10:44.144Z,14.32
2018-10-12T01:11:44.578Z,14.42
2018-10-12T01:12:45.048Z,14.52
2018-10-12T01:13:45.520Z,14.62
2018-10-12T01:14:45.988Z,14.72
2018-10-12T01:15:46.457Z,14.80
2018-10-12T01:16:46.927Z,14.88
2018-10-12T01:17:47.398Z,14.97
2018-10-12T01:18:47.868Z,15.05
2018-10-12T01:19:48.338Z,15.13
2018-10-12T01:20:48.810Z,15.19
2018-10-12T01:21:49.281Z,15.29
2018-10-12T01:22:49.752Z,15.35
2018-10-12T01:23:50.222Z,15.42
2018-10-12T01:24:50.694Z,15.52
2018-10-12T01:25:51.166Z,15.60
2018-10-12T01:26:51.635Z,15.68
2018-10-12T01:27:52.109Z,15.76
2018-10-12T01:28:52.580Z,15.85
2018-10-12T01:29:53.053Z,15.92
2018-10-12T01:30:53.524Z,16.00
2018-10-12T01:31:54.041Z,16.08
2018-10-12T01:32:54.469Z,16.14
2018-10-12T01:33:54.944Z,16.19
2018-10-12T01:34:55.414Z,16.28
2018-10-12T01:35:55.886Z,16.36
2018-10-12T01:36:56.361Z,16.40
2018-10-12T01:37:56.832Z,16.43
2018-10-12T01:38:57.306Z,16.42
2018-10-12T01:39:57.779Z,16.42
2018-10-12T01:40:58.252Z,16.41
2018-10-12T01:41:58.726Z,16.37
2018-10-12T01:42:59.202Z,16.30
2018-10-12T01:43:59.674Z,16.21
2018-10-12T01:45:00.152Z,16.13
2018-10-12T01:46:00.620Z,16.03
2018-10-12T01:47:01.095Z,15.92
2018-10-12T01:48:01.567Z,15.81
2018-10-12T01:49:02.039Z,15.68
2018-10-12T01:50:02.517Z,15.54
2018-10-12T01:51:02.986Z,15.40
2018-10-12T01:52:03.463Z,15.26
2018-10-12T01:53:03.930Z,15.12
2018-10-12T01:54:04.405Z,14.99
2018-10-12T01:55:04.876Z,14.84
2018-10-12T01:56:05.349Z,14.71
2018-10-12T01:57:05.820Z,14.57
2018-10-12T01:58:06.290Z,14.43
2018-10-12T01:59:06.762Z,14.30
2018-10-12T02:00:07.235Z,14.17
2018-10-12T02:01:07.712Z,14.05
2018-10-12T02:02:08.181Z,13.92
2018-10-12T02:03:08.649Z,13.82
2018-10-12T02:04:09.118Z,13.71
2018-10-12T02:05:09.590Z,13.61
2018-10-12T02:06:10.059Z,13.53
2018-10-12T02:07:10.530Z,13.48
2018-10-12T02:08:11.000Z,13.46
2018-10-12T02:09:11.472Z,13.44
2018-10-12T02:10:11.941Z,13.45
2018-10-12T02:11:12.409Z,13.48
2018-10-12T02:12:12.878Z,13.50
2018-10-12T02:13:13.349Z,13.55
2018-10-12T02:14:13.818Z,13.62
2018-10-12T02:15:14.287Z,13.71
2018-10-12T02:16:14.756Z,13.80
2018-10-12T02:17:15.225Z,13.89
2018-10-12T02:18:15.695Z,13.99
2018-10-12T02:19:16.167Z,14.09
2018-10-12T02:20:16.637Z,14.19
2018-10-12T02:21:17.104Z,14.28
2018-10-12T02:22:17.575Z,14.36
2018-10-12T02:23:18.044Z,14.46
2018-10-12T02:24:18.565Z,14.54
2018-10-12T02:25:18.988Z,14.62
2018-10-12T02:26:19.457Z,14.71
2018-10-12T02:27:19.924Z,14.79
2018-10-12T02:28:20.397Z,14.87
2018-10-12T02:29:20.865Z,14.95
2018-10-12T02:30:21.336Z,15.04
2018-10-12T02:31:21.807Z,15.11
2018-10-12T02:32:22.277Z,15.19
2018-10-12T02:33:22.748Z,15.26
2018-10-12T02:34:23.221Z,15.35
2018-10-12T02:35:23.694Z,15.42
2018-10-12T02:36:24.162Z,15.50
2018-10-12T02:37:24.636Z,15.57
2018-10-12T02:38:25.107Z,15.63
2018-10-12T02:39:25.578Z,15.70
2018-10-12T02:40:26.055Z,15.78
2018-10-12T02:41:26.521Z,15.83
2018-10-12T02:42:26.993Z,15.90
2018-10-12T02:43:27.466Z,15.96
2018-10-12T02:44:27.938Z,16.04
2018-10-12T02:45:28.413Z,16.12
2018-10-12T02:46:28.884Z,16.18
2018-10-12T02:47:29.356Z,16.25
2018-10-12T02:48:29.831Z,16.31
2018-10-12T02:49:30.303Z,16.34
2018-10-12T02:50:30.775Z,16.35
2018-10-12T02:51:31.251Z,16.34
2018-10-12T02:52:31.722Z,16.32
2018-10-12T02:53:32.196Z,16.29
2018-10-12T02:54:32.670Z,16.21
2018-10-12T02:55:33.145Z,16.13
2018-10-12T02:56:33.618Z,16.05
2018-10-12T02:57:34.090Z,15.96
2018-10-12T02:58:34.562Z,15.85
2018-10-12T02:59:35.036Z,15.74
2018-10-12T03:00:35.510Z,15.61
2018-10-12T03:01:35.982Z,15.47
2018-10-12T03:02:36.454Z,15.33
2018-10-12T03:03:36.927Z,15.18
2018-10-12T03:04:37.452Z,15.04
2018-10-12T03:05:37.874Z,14.90
2018-10-12T03:06:38.345Z,14.77
2018-10-12T03:07:38.817Z,14.64
2018-10-12T03:08:39.287Z,14.50
2018-10-12T03:09:39.761Z,14.35
2018-10-12T03:10:40.232Z,14.19
2018-10-12T03:11:40.702Z,14.03
2018-10-12T03:12:41.175Z,13.90
2018-10-12T03:13:41.645Z,13.76
2018-10-12T03:14:42.116Z,13.64
2018-10-12T03:15:42.585Z,13.52
2018-10-12T03:16:43.057Z,13.41
2018-10-12T03:17:43.530Z,13.34
2018-10-12T03:18:43.999Z,13.28
2018-10-12T03:19:44.465Z,13.28
2018-10-12T03:20:44.936Z,13.27
2018-10-12T03:21:45.407Z,13.29
2018-10-12T03:22:45.877Z,13.31
2018-10-12T03:23:46.345Z,13.34
2018-10-12T03:24:46.816Z,13.41
2018-10-12T03:25:47.286Z,13.50
2018-10-12T03:26:47.755Z,13.59
2018-10-12T03:27:48.224Z,13.69
2018-10-12T03:28:48.695Z,13.78
2018-10-12T03:29:49.164Z,13.87
2018-10-12T03:30:49.634Z,13.96
2018-10-12T03:31:50.101Z,14.05
2018-10-12T03:32:50.571Z,14.13
2018-10-12T03:33:51.042Z,14.22
2018-10-12T03:34:51.518Z,14.28
2018-10-12T03:35:51.982Z,14.36
2018-10-12T03:36:52.454Z,14.43
2018-10-12T03:37:52.922Z,14.50
2018-10-12T03:38:53.392Z,14.56
2018-10-12T03:39:53.862Z,14.63
2018-10-12T03:40:54.334Z,14.72
2018-10-12T03:41:54.804Z,14.78
2018-10-12T03:42:55.275Z,14.86
2018-10-12T03:43:55.748Z,14.93
2018-10-12T03:44:56.214Z,15.03
2018-10-12T03:45:56.688Z,15.11
2018-10-12T03:46:57.157Z,15.17
2018-10-12T03:47:57.630Z,15.25
2018-10-12T03:48:58.102Z,15.31
2018-10-12T03:49:58.578Z,15.36
2018-10-12T03:50:59.046Z,15.45
2018-10-12T03:51:59.571Z,15.54
2018-10-12T03:52:59.988Z,15.61
2018-10-12T03:54:00.461Z,15.66
2018-10-12T03:55:00.935Z,15.71
2018-10-12T03:56:01.407Z,15.79
2018-10-12T03:57:01.880Z,15.85
2018-10-12T03:58:02.350Z,15.93
2018-10-12T03:59:02.825Z,16.02
2018-10-12T04:00:03.297Z,16.08
2018-10-12T04:01:03.768Z,16.12
2018-10-12T04:02:04.242Z,16.14
2018-10-12T04:03:04.716Z,16.13
2018-10-12T04:04:05.188Z,16.11
2018-10-12T04:05:05.663Z,16.09
2018-10-12T04:06:06.135Z,16.04
2018-10-12T04:07:06.611Z,15.95
2018-10-12T04:08:07.086Z,15.86
2018-10-12T04:09:07.557Z,15.77
2018-10-12T04:10:08.031Z,15.68
2018-10-12T04:11:08.504Z,15.55
2018-10-12T04:12:08.979Z,15.42
2018-10-12T04:13:09.450Z,15.28
2018-10-12T04:14:09.924Z,15.13
2018-10-12T04:15:10.395Z,14.99
2018-10-12T04:16:10.868Z,14.83
2018-10-12T04:17:11.345Z,14.69
2018-10-12T04:18:11.814Z,14.54
2018-10-12T04:19:12.285Z,14.42
2018-10-12T04:20:12.807Z,14.30
2018-10-12T04:21:13.229Z,14.15
2018-10-12T04:22:13.762Z,14.01
2018-10-12T04:23:14.172Z,13.86
2018-10-12T04:24:14.646Z,13.72
2018-10-12T04:25:15.114Z,13.59
2018-10-12T04:26:15.585Z,13.47
2018-10-12T04:27:16.057Z,13.34
2018-10-12T04:28:16.527Z,13.25
2018-10-12T04:29:16.997Z,13.17
2018-10-12T04:30:17.468Z,13.12
2018-10-12T04:31:17.939Z,13.08
2018-10-12T04:32:18.406Z,13.09
2018-10-12T04:33:18.877Z,13.10
2018-10-12T04:34:19.349Z,13.10
2018-10-12T04:35:19.816Z,13.14
2018-10-12T04:36:20.289Z,13.19
2018-10-12T04:37:20.756Z,13.27
2018-10-12T04:38:21.226Z,13.34
2018-10-12T04:39:21.697Z,13.42
2018-10-12T04:40:22.214Z,13.51
2018-10-12T04:41:22.633Z,13.57
2018-10-12T04:42:23.104Z,13.67
2018-10-12T04:43:23.574Z,13.77
2018-10-12T04:44:24.043Z,13.86
2018-10-12T04:45:24.513Z,13.94
2018-10-12T04:46:24.983Z,14.03
2018-10-12T04:47:25.558Z,14.15
2018-10-12T04:48:25.922Z,14.23
2018-10-12T04:49:26.392Z,14.33
2018-10-12T04:50:26.865Z,14.40
2018-10-12T04:51:27.333Z,14.51
2018-10-12T04:52:27.803Z,14.58
2018-10-12T04:53:28.274Z,14.66
2018-10-12T04:54:28.745Z,14.75
2018-10-12T04:55:29.217Z,14.81
2018-10-12T04:56:29.688Z,14.88
2018-10-12T04:57:30.157Z,14.97
2018-10-12T04:58:30.629Z,15.05
2018-10-12T04:59:31.100Z,15.14
2018-10-12T05:00:31.619Z,15.20
2018-10-12T05:01:32.043Z,15.28
2018-10-12T05:02:32.516Z,15.34
2018-10-12T05:03:32.996Z,15.41
2018-10-12T05:04:33.464Z,15.48
2018-10-12T05:05:33.931Z,15.53
2018-10-12T05:06:34.405Z,15.61
2018-10-12T05:07:34.907Z,15.64
2018-10-12T05:08:35.348Z,15.71
2018-10-12T05:09:35.821Z,15.78
2018-10-12T05:10:36.296Z,15.85
2018-10-12T05:11:36.771Z,15.92
2018-10-12T05:12:37.243Z,15.96
2018-10-12T05:13:37.716Z,15.98
2018-10-12T05:14:38.188Z,15.99
2018-10-12T05:15:38.710Z,15.95
2018-10-12T05:16:39.134Z,15.93
2018-10-12T05:17:39.606Z,15.89
2018-10-12T05:18:40.084Z,15.83
2018-10-12T05:19:40.555Z,15.75
2018-10-12T05:20:41.028Z,15.65
2018-10-12T05:21:41.501Z,15.55
2018-10-12T05:22:41.974Z,15.42
2018-10-12T05:23:42.450Z,15.30
2018-10-12T05:24:42.920Z,15.16
2018-10-12T05:25:43.443Z,15.02
2018-10-12T05:26:43.867Z,14.89
2018-10-12T05:27:44.341Z,14.75
2018-10-12T05:28:44.811Z,14.60
2018-10-12T05:29:45.287Z,14.45
2018-10-12T05:30:45.758Z,14.31
2018-10-12T05:31:46.228Z,14.15
2018-10-12T05:32:46.700Z,14.00
2018-10-12T05:33:47.175Z,13.83
2018-10-12T05:34:47.643Z,13.66
2018-10-12T05:35:48.115Z,13.51
2018-10-12T05:36:48.586Z,13.37
2018-10-12T05:37:49.059Z,13.22
2018-10-12T05:38:49.530Z,13.09
2018-10-12T05:39:50.000Z,12.98
2018-10-12T05:40:50.471Z,12.88
2018-10-12T05:41:50.938Z,12.83
2018-10-12T05:42:51.488Z,12.80
2018-10-12T05:43:51.975Z,12.78
2018-10-12T05:44:52.347Z,12.80
2018-10-12T05:45:52.818Z,12.82
2018-10-12T05:46:53.288Z,12.84
2018-10-12T05:47:53.758Z,12.88
2018-10-12T05:48:54.310Z,12.96
2018-10-12T05:49:54.697Z,13.05
2018-10-12T05:50:55.168Z,13.13
2018-10-12T05:51:55.636Z,13.22
2018-10-12T05:52:56.105Z,13.32
2018-10-12T05:53:56.575Z,13.43
2018-10-12T05:54:57.046Z,13.54
2018-10-12T05:55:57.639Z,13.62
2018-10-12T05:56:57.984Z,13.76
2018-10-12T05:57:58.456Z,13.86
2018-10-12T05:58:58.924Z,14.01
2018-10-12T05:59:59.394Z,14.12
2018-10-12T06:00:59.864Z,14.23
2018-10-12T06:02:00.337Z,14.35
2018-10-12T06:03:00.804Z,14.45
2018-10-12T06:04:01.275Z,14.57
2018-10-12T06:05:01.744Z,14.68
2018-10-12T06:06:02.215Z,14.78
2018-10-12T06:07:02.686Z,14.86
2018-10-12T06:08:03.165Z,14.96
2018-10-12T06:09:03.629Z,15.05
2018-10-12T06:10:04.162Z,15.13
2018-10-12T06:11:04.627Z,15.22
2018-10-12T06:12:05.043Z,15.31
2018-10-12T06:13:05.513Z,15.39
2018-10-12T06:14:05.986Z,15.49
2018-10-12T06:15:06.457Z,15.58
2018-10-12T06:16:06.930Z,15.69
2018-10-12T06:17:07.401Z,15.78
2018-10-12T06:18:07.873Z,15.88
2018-10-12T06:19:08.346Z,15.95
2018-10-12T06:20:08.819Z,16.04
2018-10-12T06:21:09.291Z,16.12
2018-10-12T06:22:09.766Z,16.20
2018-10-12T06:23:10.242Z,16.29
2018-10-12T06:24:10.712Z,16.35
2018-10-12T06:25:11.185Z,16.45
2018-10-12T06:26:11.660Z,16.48
2018-10-12T06:27:12.131Z,16.50
2018-10-12T06:28:12.604Z,16.50
2018-10-12T06:29:13.078Z,16.51
2018-10-12T06:30:13.553Z,16.50
2018-10-12T06:31:14.026Z,16.44
2018-10-12T06:32:14.499Z,16.38
2018-10-12T06:33:14.973Z,16.32
2018-10-12T06:34:15.447Z,16.25
2018-10-12T06:35:15.921Z,16.16
2018-10-12T06:36:16.395Z,16.08
2018-10-12T06:37:16.866Z,15.99
2018-10-12T06:38:17.342Z,15.88
2018-10-12T06:39:17.815Z,15.77
2018-10-12T06:40:18.290Z,15.66
2018-10-12T06:41:18.849Z,15.55
2018-10-12T06:42:19.234Z,15.44
2018-10-12T06:43:19.706Z,15.33
2018-10-12T06:44:20.178Z,15.21
2018-10-12T06:45:20.652Z,15.10
2018-10-12T06:46:21.131Z,14.99
2018-10-12T06:47:21.597Z,14.87
2018-10-12T06:48:22.067Z,14.77
2018-10-12T06:49:22.540Z,14.68
2018-10-12T06:50:23.010Z,14.58
2018-10-12T06:51:23.481Z,14.50
2018-10-12T06:52:23.952Z,14.41
2018-10-12T06:53:24.425Z,14.34
2018-10-12T06:54:24.894Z,14.27
2018-10-12T06:55:25.367Z,14.20
2018-10-12T06:56:25.836Z,14.15
2018-10-12T06:57:26.305Z,14.14
2018-10-12T06:58:26.778Z,14.14
2018-10-12T06:59:27.247Z,14.17
2018-10-12T07:00:27.722Z,14.21
2018-10-12T07:01:28.187Z,14.27
2018-10-12T07:02:28.659Z,14.33
2018-10-12T07:03:29.126Z,14.41
2018-10-12T07:04:29.599Z,14.51
2018-10-12T07:05:30.099Z,14.62
2018-10-12T07:06:30.541Z,14.72
2018-10-12T07:07:31.009Z,14.83
2018-10-12T07:08:31.481Z,14.94
2018-10-12T07:09:31.950Z,15.07
2018-10-12T07:10:32.419Z,15.19
2018-10-12T07:11:32.888Z,15.32
2018-10-12T07:12:33.360Z,15.44
2018-10-12T07:13:33.832Z,15.57
2018-10-12T07:14:34.302Z,15.71
2018-10-12T07:15:34.776Z,15.82
2018-10-12T07:16:35.244Z,15.96
2018-10-12T07:17:35.717Z,16.07
2018-10-12T07:18:36.185Z,16.19
2018-10-12T07:19:36.688Z,16.30
2018-10-12T07:20:37.131Z,16.41
2018-10-12T07:21:37.603Z,16.51
2018-10-12T07:22:38.073Z,16.60
2018-10-12T07:23:38.545Z,16.73
2018-10-12T07:24:39.021Z,16.82
2018-10-12T07:25:39.492Z,16.94
2018-10-12T07:26:40.029Z,17.06
2018-10-12T07:27:40.437Z,17.17
2018-10-12T07:28:40.910Z,17.27
2018-10-12T07:29:41.387Z,17.39
2018-10-12T07:30:41.861Z,17.48
2018-10-12T07:31:42.330Z,17.60
2018-10-12T07:32:42.804Z,17.66
2018-10-12T07:33:43.282Z,17.71
2018-10-12T07:34:43.753Z,17.75
2018-10-12T07:35:44.225Z,17.78
2018-10-12T07:36:44.760Z,17.77
2018-10-12T07:37:45.553Z,17.73
2018-10-12T07:38:45.650Z,17.69
2018-10-12T07:39:46.123Z,17.65
2018-10-12T07:40:46.601Z,17.60
2018-10-12T07:41:47.071Z,17.55
2018-10-12T07:42:47.546Z,17.48
2018-10-12T07:43:48.030Z,17.41
2018-10-12T07:44:48.498Z,17.33
2018-10-12T07:45:48.969Z,17.25
2018-10-12T07:46:49.443Z,17.15
2018-10-12T07:47:49.915Z,17.06
2018-10-12T07:48:50.393Z,16.97
2018-10-12T07:49:50.865Z,16.89
2018-10-12T07:50:51.338Z,16.81
2018-10-12T07:51:51.811Z,16.74
2018-10-12T07:52:52.285Z,16.66
2018-10-12T07:53:52.757Z,16.59
2018-10-12T07:54:53.230Z,16.51
2018-10-12T07:55:53.704Z,16.43
2018-10-12T07:56:54.175Z,16.36
2018-10-12T07:57:54.648Z,16.30
2018-10-12T07:58:55.122Z,16.25
2018-10-12T07:59:55.595Z,16.19
2018-10-12T08:00:56.066Z,16.15
2018-10-12T08:01:56.587Z,16.10
2018-10-12T08:02:57.015Z,16.05
2018-10-12T08:03:57.482Z,16.01
2018-10-12T08:04:57.953Z,15.96
2018-10-12T08:05:58.426Z,15.90
2018-10-12T08:06:58.897Z,15.86
2018-10-12T08:07:59.368Z,15.81
2018-10-12T08:08:59.838Z,15.77
2018-10-12T08:10:00.311Z,15.73
2018-10-12T08:11:00.781Z,15.71
2018-10-12T08:12:01.252Z,15.70
2018-10-12T08:13:01.727Z,15.71
2018-10-12T08:14:02.198Z,15.74
2018-10-12T08:15:02.664Z,15.78
2018-10-12T08:16:03.138Z,15.85
2018-10-12T08:17:03.606Z,15.93
2018-10-12T08:18:04.078Z,16.03
2018-10-12T08:19:04.547Z,16.14
2018-10-12T08:20:05.019Z,16.26
2018-10-12T08:21:05.489Z,16.38
2018-10-12T08:22:05.960Z,16.51
2018-10-12T08:23:06.433Z,16.67
2018-10-12T08:24:06.900Z,16.81
2018-10-12T08:25:07.375Z,16.98
2018-10-12T08:26:07.842Z,17.14
2018-10-12T08:27:08.348Z,17.32
2018-10-12T08:28:08.787Z,17.46
2018-10-12T08:29:09.260Z,17.62
2018-10-12T08:30:09.728Z,17.78
2018-10-12T08:31:10.207Z,17.95
2018-10-12T08:32:10.674Z,18.10
2018-10-12T08:33:11.146Z,18.26
2018-10-12T08:34:11.618Z,18.41
2018-10-12T08:35:12.094Z,18.55
2018-10-12T08:36:12.583Z,18.68
2018-10-12T08:37:13.038Z,18.82
2018-10-12T08:38:13.511Z,18.97
2018-10-12T08:39:13.985Z,19.10
2018-10-12T08:40:14.459Z,19.24
2018-10-12T08:41:14.932Z,19.36
2018-10-12T08:42:15.459Z,19.44
2018-10-12T08:43:15.881Z,19.51
2018-10-12T08:44:16.357Z,19.57
2018-10-12T08:45:16.833Z,19.61
2018-10-12T08:46:17.306Z,19.61
2018-10-12T08:47:17.784Z,19.61
2018-10-12T08:48:18.254Z,19.61
2018-10-12T08:49:18.735Z,19.62
2018-10-12T08:50:19.207Z,19.61
2018-10-12T08:51:19.679Z,19.58
2018-10-12T08:52:20.158Z,19.56
2018-10-12T08:53:20.631Z,19.51
2018-10-12T08:54:21.104Z,19.49
2018-10-12T08:55:21.593Z,19.44
2018-10-12T08:56:22.055Z,19.40
2018-10-12T08:57:22.533Z,19.36
2018-10-12T08:58:23.004Z,19.32
2018-10-12T08:59:23.481Z,19.26
2018-10-12T09:00:23.957Z,19.21
2018-10-12T09:01:24.432Z,19.16
2018-10-12T09:02:24.903Z,19.10
2018-10-12T09:03:25.380Z,19.07
2018-10-12T09:04:25.852Z,19.02
2018-10-12T09:05:26.328Z,18.97
2018-10-12T09:06:26.801Z,18.92
2018-10-12T09:07:27.275Z,18.88
2018-10-12T09:08:27.748Z,18.85
2018-10-12T09:09:28.224Z,18.80
2018-10-12T09:10:28.698Z,18.78
2018-10-12T09:11:29.171Z,18.74
2018-10-12T09:12:29.645Z,18.71
2018-10-12T09:13:30.120Z,18.69
2018-10-12T09:14:30.590Z,18.66
2018-10-12T09:15:31.066Z,18.64
2018-10-12T09:16:31.537Z,18.62
2018-10-12T09:17:32.063Z,18.59
2018-10-12T09:18:32.485Z,18.57
2018-10-12T09:19:32.956Z,18.54
2018-10-12T09:20:33.560Z,18.52
2018-10-12T09:21:33.905Z,18.50
2018-10-12T09:22:34.378Z,18.48
2018-10-12T09:23:34.847Z,18.46
2018-10-12T09:24:35.322Z,18.44
2018-10-12T09:25:35.795Z,18.43
2018-10-12T09:26:36.264Z,18.41
2018-10-12T09:27:36.740Z,18.40
2018-10-12T09:28:37.210Z,18.38
2018-10-12T09:29:37.682Z,18.36
2018-10-12T09:30:38.155Z,18.36
2018-10-12T09:31:38.627Z,18.35
2018-10-12T09:32:39.099Z,18.34
2018-10-12T09:33:39.611Z,18.33
2018-10-12T09:34:40.041Z,18.32
2018-10-12T09:35:40.514Z,18.32
2018-10-12T09:36:41.111Z,18.32
2018-10-12T09:37:41.459Z,18.32
2018-10-12T09:38:41.933Z,18.32
2018-10-12T09:39:42.401Z,18.31
2018-10-12T09:40:42.877Z,18.32
2018-10-12T09:41:43.345Z,18.31
2018-10-12T09:42:43.818Z,18.32
2018-10-12T09:43:44.287Z,18.32
2018-10-12T09:44:44.760Z,18.32
2018-10-12T09:45:45.232Z,18.32
2018-10-12T09:46:45.703Z,18.32
2018-10-12T09:47:46.177Z,18.32
2018-10-12T09:48:46.643Z,18.31
2018-10-12T09:49:47.119Z,18.32
2018-10-12T09:50:47.587Z,18.32
2018-10-12T09:51:48.056Z,18.32
2018-10-12T09:52:48.530Z,18.32
2018-10-12T09:53:49.005Z,18.33
2018-10-12T09:54:49.473Z,18.33
2018-10-12T09:55:49.950Z,18.33
2018-10-12T09:56:50.414Z,18.34
2018-10-12T09:57:50.936Z,18.33
2018-10-12T09:58:51.357Z,18.34
2018-10-12T09:59:51.828Z,18.34
2018-10-12T10:00:52.297Z,18.35
2018-10-12T10:01:52.828Z,18.34
2018-10-12T10:02:53.241Z,18.35
2018-10-12T10:03:53.711Z,18.36
2018-10-12T10:04:54.182Z,18.36
2018-10-12T10:05:54.653Z,18.36
2018-10-12T10:06:55.123Z,18.37
2018-10-12T10:07:55.630Z,18.37
2018-10-12T10:08:56.150Z,18.38
2018-10-12T10:09:56.536Z,18.39
2018-10-12T10:10:57.008Z,18.42
2018-10-12T10:11:57.481Z,18.46
2018-10-12T10:12:57.998Z,18.51
2018-10-12T10:13:58.453Z,18.58
2018-10-12T10:14:58.890Z,18.64
2018-10-12T10:15:59.364Z,18.73
2018-10-12T10:16:59.833Z,18.83
2018-10-12T10:18:00.303Z,18.94
2018-10-12T10:19:00.775Z,19.05
2018-10-12T10:20:01.244Z,19.18
2018-10-12T10:21:01.717Z,19.32
2018-10-12T10:22:02.190Z,19.47
2018-10-12T10:23:02.665Z,19.63
2018-10-12T10:24:03.135Z,19.78
2018-10-12T10:25:03.627Z,19.95
2018-10-12T10:26:04.077Z,20.12
2018-10-12T10:27:04.551Z,20.28
2018-10-12T10:28:05.024Z,20.46
2018-10-12T10:29:05.511Z,20.62
2018-10-12T10:30:05.971Z,20.78
2018-10-12T10:31:06.442Z,20.92
2018-10-12T10:32:06.974Z,21.06
2018-10-12T10:33:07.392Z,21.18
2018-10-12T10:34:08.396Z,21.28
2018-10-12T10:35:08.340Z,21.38
2018-10-12T10:36:08.813Z,21.44
2018-10-12T10:37:09.290Z,21.48
2018-10-12T10:38:09.772Z,21.50
2018-10-12T10:39:10.360Z,21.53
2018-10-12T10:40:10.718Z,21.57
2018-10-12T10:41:11.193Z,21.59
2018-10-12T10:42:11.666Z,21.60
2018-10-12T10:43:12.142Z,21.61
2018-10-12T10:44:12.617Z,21.60
2018-10-12T10:45:13.093Z,21.59
2018-10-12T10:46:13.614Z,21.58
2018-10-12T10:47:14.044Z,21.56
2018-10-12T10:48:14.570Z,21.53
2018-10-12T10:49:14.996Z,21.50
2018-10-12T10:50:15.472Z,21.47
2018-10-12T10:51:15.948Z,21.44
2018-10-12T10:52:16.423Z,21.39
2018-10-12T10:53:16.900Z,21.35
2018-10-12T10:54:17.375Z,21.32
2018-10-12T10:55:17.848Z,21.28
2018-10-12T10:56:18.526Z,21.24
2018-10-12T10:57:18.802Z,21.20
2018-10-12T10:58:19.276Z,21.16
2018-10-12T10:59:19.754Z,21.12
2018-10-12T11:00:20.227Z,21.06
2018-10-12T11:01:20.703Z,21.01
2018-10-12T11:02:21.177Z,20.95
2018-10-12T11:03:21.651Z,20.90
2018-10-12T11:04:22.130Z,20.85
2018-10-12T11:05:22.606Z,20.81
2018-10-12T11:06:23.171Z,20.78
2018-10-12T11:07:23.552Z,20.75
2018-10-12T11:08:24.078Z,20.73
2018-10-12T11:09:24.508Z,20.70
2018-10-12T11:10:24.978Z,20.68
2018-10-12T11:11:25.453Z,20.68
2018-10-12T11:12:25.979Z,20.67
2018-10-12T11:13:26.402Z,20.65
2018-10-12T11:14:26.880Z,20.64
2018-10-12T11:15:27.351Z,20.64
2018-10-12T11:16:27.826Z,20.63
2018-10-12T11:17:28.300Z,20.63
2018-10-12T11:18:28.776Z,20.62
2018-10-12T11:19:29.259Z,20.62
2018-10-12T11:20:29.722Z,20.61
2018-10-12T11:21:30.200Z,20.59
2018-10-12T11:22:30.671Z,20.57
2018-10-12T11:23:31.146Z,20.56
2018-10-12T11:24:31.672Z,20.55
2018-10-12T11:25:32.096Z,20.55
2018-10-12T11:26:32.612Z,20.54
2018-10-12T11:27:33.042Z,20.53
2018-10-12T11:28:33.516Z,20.54
2018-10-12T11:29:33.989Z,20.53
2018-10-12T11:30:34.466Z,20.51
2018-10-12T11:31:34.936Z,20.51
2018-10-12T11:32:35.432Z,20.49
2018-10-12T11:33:35.885Z,20.48
2018-10-12T11:34:36.360Z,20.46
2018-10-12T11:35:36.833Z,20.44
2018-10-12T11:36:37.306Z,20.42
2018-10-12T11:37:37.781Z,20.40
2018-10-12T11:38:38.255Z,20.39
2018-10-12T11:39:38.729Z,20.37
2018-10-12T11:40:39.202Z,20.35
2018-10-12T11:41:39.675Z,20.34
2018-10-12T11:42:40.148Z,20.33
2018-10-12T11:43:40.622Z,20.31
2018-10-12T11:44:41.105Z,20.29
2018-10-12T11:45:41.568Z,20.28
2018-10-12T11:46:42.040Z,20.27
2018-10-12T11:47:42.514Z,20.26
2018-10-12T11:48:43.039Z,20.25
2018-10-12T11:49:43.461Z,20.24
2018-10-12T11:50:43.938Z,20.23
2018-10-12T11:51:44.408Z,20.23
2018-10-12T11:52:44.886Z,20.22
2018-10-12T11:53:45.356Z,20.22
2018-10-12T11:54:45.830Z,20.22
2018-10-12T11:55:46.303Z,20.22
2018-10-12T11:56:46.776Z,20.22
2018-10-12T11:57:47.252Z,20.21
2018-10-12T11:58:47.722Z,20.20
2018-10-12T11:59:48.196Z,20.18
2018-10-12T12:00:48.684Z,20.17
2018-10-12T12:01:49.141Z,20.15
2018-10-12T12:02:49.615Z,20.13
2018-10-12T12:03:50.093Z,20.09
2018-10-12T12:04:50.566Z,20.06
2018-10-12T12:05:51.040Z,20.03
2018-10-12T12:06:51.510Z,20.01
2018-10-12T12:07:51.981Z,20.00
2018-10-12T12:08:52.455Z,19.97
2018-10-12T12:09:52.926Z,19.95
2018-10-12T12:10:53.400Z,19.94
2018-10-12T12:11:53.873Z,19.93
2018-10-12T12:12:54.350Z,19.91
2018-10-12T12:13:54.862Z,19.88
2018-10-12T12:14:55.294Z,19.85
2018-10-12T12:15:55.765Z,19.83
2018-10-12T12:16:56.241Z,19.81
2018-10-12T12:17:56.712Z,19.79
2018-10-12T12:18:57.186Z,19.77
2018-10-12T12:19:57.658Z,19.77
2018-10-12T12:20:58.131Z,19.75
2018-10-12T12:21:58.604Z,19.74
2018-10-12T12:22:59.078Z,19.72
2018-10-12T12:23:59.548Z,19.71
2018-10-12T12:25:00.022Z,19.70
2018-10-12T12:26:00.497Z,19.69
2018-10-12T12:27:00.969Z,19.67
2018-10-12T12:28:01.440Z,19.67
2018-10-12T12:29:01.914Z,19.66
2018-10-12T12:30:02.387Z,19.65
2018-10-12T12:31:02.859Z,19.63
2018-10-12T12:32:03.332Z,19.61
2018-10-12T12:33:03.804Z,19.60
2018-10-12T12:34:04.328Z,19.60
2018-10-12T12:35:04.917Z,19.58
2018-10-12T12:36:05.318Z,19.57
2018-10-12T12:37:05.697Z,19.57
2018-10-12T12:38:06.168Z,19.56
2018-10-12T12:39:06.642Z,19.53
2018-10-12T12:40:07.114Z,19.52
2018-10-12T12:41:07.588Z,19.50
2018-10-12T12:42:08.058Z,19.49
2018-10-12T12:43:08.533Z,19.47
2018-10-12T12:44:09.006Z,19.46
2018-10-12T12:45:09.479Z,19.44
2018-10-12T12:46:09.951Z,19.43
2018-10-12T12:47:10.428Z,19.41
2018-10-12T12:48:11.056Z,19.39
2018-10-12T12:49:11.662Z,19.38
2018-10-12T12:50:11.840Z,19.35
2018-10-12T12:51:12.313Z,19.33
2018-10-12T12:52:12.785Z,19.31
2018-10-12T12:53:13.262Z,19.28
2018-10-12T12:54:13.732Z,19.26
2018-10-12T12:55:14.205Z,19.25
2018-10-12T12:56:14.675Z,19.24
2018-10-12T12:57:15.147Z,19.22
2018-10-12T12:58:15.839Z,19.22